Time;durP1;ratioP1;P1;durP2;ratioP2;P2;SDS_P1;SDS_P2;PMS_P1;PMS_P2;Temp;Humidity;BMP_temperature;BMP_pressure;BME280_temperature;BME280_humidity;BME280_pressure;Samples;Min_cycle;Max_cycle;Signal;HPM_P1;HPM_P2
2022/08/05 00:01:45;;;;;;;6.35;5.35;;;29.20;88.90;;;;;;4991357;28;20236;-70
2022/08/05 00:04:11;;;;;;;6.63;5.15;;;29.10;89.60;;;;;;4971896;28;20202;-70
2022/08/05 00:06:37;;;;;;;6.20;5.00;;;29.10;90.00;;;;;;4986957;28;20778;-69
2022/08/05 00:09:03;;;;;;;11.48;5.68;;;29.10;90.10;;;;;;4990060;28;20201;-70
2022/08/05 00:11:30;;;;;;;9.32;4.97;;;29.00;90.10;;;;;;4971964;28;20261;-70
2022/08/05 00:13:55;;;;;;;6.75;5.35;;;29.00;90.50;;;;;;4989818;28;20205;-69
2022/08/05 00:16:21;;;;;;;6.63;4.97;;;29.00;90.50;;;;;;4971822;28;20272;-68
2022/08/05 00:18:48;;;;;;;7.95;5.35;;;28.90;90.60;;;;;;4984656;28;20198;-70
2022/08/05 00:21:15;;;;;;;7.13;5.00;;;28.90;90.80;;;;;;4986812;28;20223;-68
2022/08/05 00:23:43;;;;;;;6.75;5.45;;;28.80;91.10;;;;;;4987394;28;20678;-70
2022/08/05 00:26:10;;;;;;;7.65;5.30;;;28.80;91.20;;;;;;4984585;28;20185;-70
2022/08/05 00:28:35;;;;;;;9.50;6.65;;;28.70;91.30;;;;;;4982633;28;20170;-70
2022/08/05 00:31:02;;;;;;;9.75;5.93;;;28.70;91.70;;;;;;4993737;28;20232;-70
2022/08/05 00:33:27;;;;;;;11.60;6.47;;;28.70;91.80;;;;;;4968401;28;20206;-70
2022/08/05 00:35:53;;;;;;;10.13;7.75;;;28.60;92.10;;;;;;4984942;28;20213;-69
2022/08/05 00:38:19;;;;;;;11.75;6.20;;;28.60;92.50;;;;;;4972994;28;20178;-69
2022/08/05 00:40:50;;;;;;;9.23;6.13;;;28.50;92.60;;;;;;4988249;28;20276;-69
2022/08/05 00:43:16;;;;;;;7.03;5.78;;;28.50;93.00;;;;;;4966445;28;20718;-70
2022/08/05 00:45:42;;;;;;;12.68;8.23;;;28.50;93.20;;;;;;4983023;28;20237;-69
2022/08/05 00:48:16;;;;;;;8.75;6.45;;;28.50;93.50;;;;;;4989112;28;20205;-69
2022/08/05 00:50:44;;;;;;;13.88;7.95;;;28.40;93.90;;;;;;4986060;28;20299;-70
2022/08/05 00:53:09;;;;;;;8.88;6.78;;;28.30;94.40;;;;;;4982836;28;20633;-69
2022/08/05 00:55:35;;;;;;;9.57;7.25;;;28.30;94.70;;;;;;4972795;28;20205;-69
2022/08/05 00:58:01;;;;;;;11.18;8.48;;;28.20;95.00;;;;;;4988038;28;20213;-69
2022/08/05 01:00:30;;;;;;;12.38;10.13;;;28.10;95.70;;;;;;4986847;28;20205;-68
2022/08/05 01:02:57;;;;;;;11.40;7.15;;;28.00;96.10;;;;;;4966258;28;20197;-70
2022/08/05 01:05:23;;;;;;;9.18;7.38;;;28.00;96.70;;;;;;4987719;28;20285;-70
2022/08/05 01:07:49;;;;;;;13.60;8.95;;;28.00;97.20;;;;;;4987329;28;20170;-69
2022/08/05 01:10:17;;;;;;;10.88;8.55;;;27.90;97.70;;;;;;4981606;28;20217;-69
2022/08/05 01:12:47;;;;;;;12.93;7.32;;;27.90;98.30;;;;;;4973740;28;20740;-69
2022/08/05 01:15:19;;;;;;;11.88;6.47;;;27.80;98.80;;;;;;4988876;28;20223;-69
2022/08/05 01:17:49;;;;;;;9.88;6.75;;;27.70;99.40;;;;;;4988645;28;20193;-69
2022/08/05 01:20:39;;;;;;;12.60;7.40;;;27.60;99.90;;;;;;4970019;28;20196;-69
2022/08/05 01:23:29;;;;;;;7.22;5.95;;;27.50;99.90;;;;;;4988947;28;20177;-70
2022/08/05 01:26:26;;;;;;;12.45;7.43;;;27.50;99.90;;;;;;4985316;28;20225;-69
2022/08/05 01:29:15;;;;;;;11.68;6.53;;;27.40;99.90;;;;;;4987066;28;20198;-69
2022/08/05 01:31:58;;;;;;;10.98;6.95;;;27.30;99.90;;;;;;4990860;28;21567;-68
2022/08/05 01:34:36;;;;;;;12.63;6.43;;;27.20;99.90;;;;;;4986943;28;20212;-69
2022/08/05 01:37:38;;;;;;;8.77;6.88;;;27.20;99.90;;;;;;4984722;28;20210;-69
2022/08/05 01:40:05;;;;;;;8.05;6.47;;;27.20;99.90;;;;;;4968100;28;20204;-69
2022/08/05 01:42:33;;;;;;;9.25;6.10;;;27.10;99.90;;;;;;4987189;28;20571;-69
2022/08/05 01:45:00;;;;;;;10.02;6.60;;;27.00;99.90;;;;;;4986501;28;20202;-69
2022/08/05 01:47:29;;;;;;;14.20;7.60;;;26.90;99.90;;;;;;4989727;28;20546;-69
2022/08/05 01:49:56;;;;;;;11.32;6.25;;;26.90;99.90;;;;;;4990823;28;20244;-69
2022/08/05 01:52:23;;;;;;;10.13;6.65;;;26.90;99.90;;;;;;4973190;28;20614;-69
2022/08/05 01:55:00;;;;;;;12.90;6.57;;;26.80;99.90;;;;;;4986214;28;20201;-69
2022/08/05 01:57:34;;;;;;;9.88;5.40;;;26.90;99.90;;;;;;4989864;28;20212;-69
2022/08/05 02:00:03;;;;;;;8.27;5.70;;;26.80;99.90;;;;;;4990049;28;20220;-69
2022/08/05 02:02:30;;;;;;;13.48;6.50;;;26.80;99.90;;;;;;4986190;28;20221;-68
2022/08/05 02:05:00;;;;;;;11.80;6.93;;;26.70;99.90;;;;;;4992543;28;20476;-69
2022/08/05 02:07:26;;;;;;;7.75;7.05;;;26.60;99.90;;;;;;4987698;28;20249;-69
2022/08/05 02:09:52;;;;;;;8.98;5.88;;;26.60;99.90;;;;;;4987413;28;20213;-69
2022/08/05 02:12:24;;;;;;;7.13;4.60;;;26.60;99.90;;;;;;4968045;28;20209;-69
2022/08/05 02:14:59;;;;;;;10.07;4.65;;;26.50;99.90;;;;;;4987951;28;20259;-69
2022/08/05 02:17:37;;;;;;;5.55;4.65;;;26.50;99.90;;;;;;4985558;28;20230;-69
2022/08/05 02:20:07;;;;;;;8.75;4.80;;;26.40;99.90;;;;;;4983896;28;20185;-69
2022/08/05 02:22:41;;;;;;;7.22;4.75;;;26.40;99.90;;;;;;4990370;28;20198;-69
2022/08/05 02:25:15;;;;;;;9.48;4.57;;;26.40;99.90;;;;;;4985600;28;20246;-70
2022/08/05 02:27:47;;;;;;;8.63;4.78;;;26.40;99.90;;;;;;4974739;28;20271;-69
2022/08/05 02:30:14;;;;;;;10.27;4.70;;;26.40;99.90;;;;;;4991731;28;20228;-69
2022/08/05 02:32:40;;;;;;;7.50;4.15;;;26.30;99.90;;;;;;4989457;28;20284;-69
2022/08/05 02:35:14;;;;;;;6.32;4.35;;;26.30;99.90;;;;;;4987028;28;20172;-69
2022/08/05 02:37:41;;;;;;;6.85;4.57;;;26.10;99.90;;;;;;4985039;28;20735;-69
2022/08/05 02:40:08;;;;;;;5.05;4.32;;;26.20;99.90;;;;;;4990300;28;20284;-70
2022/08/05 02:42:35;;;;;;;7.97;4.45;;;26.10;99.90;;;;;;4991114;28;20198;-69
2022/08/05 02:45:02;;;;;;;6.97;4.78;;;26.10;99.90;;;;;;4986136;28;20233;-70
2022/08/05 02:47:29;;;;;;;5.30;4.13;;;26.10;99.90;;;;;;4981495;28;20217;-69
2022/08/05 02:49:56;;;;;;;15.10;8.93;;;26.10;99.90;;;;;;4977922;28;20282;-69
2022/08/05 02:52:22;;;;;;;11.77;7.53;;;26.10;99.90;;;;;;4986721;28;20202;-69
2022/08/05 02:54:49;;;;;;;16.13;11.55;;;26.00;99.90;;;;;;4988966;28;20262;-70
2022/08/05 02:57:17;;;;;;;18.77;14.68;;;26.10;99.90;;;;;;4995218;28;20213;-69
2022/08/05 02:59:45;;;;;;;7.45;6.68;;;26.00;99.90;;;;;;4991920;28;20716;-69
2022/08/05 03:02:16;;;;;;;8.75;4.38;;;26.10;99.90;;;;;;4967320;28;20200;-69
2022/08/05 03:04:43;;;;;;;6.90;6.20;;;26.10;99.90;;;;;;5000502;28;20165;-69
2022/08/05 03:07:09;;;;;;;5.47;4.40;;;26.10;99.90;;;;;;4990615;28;20713;-70
2022/08/05 03:09:35;;;;;;;5.00;4.30;;;26.10;99.90;;;;;;4990938;28;20213;-69
2022/08/05 03:12:01;;;;;;;6.70;4.57;;;26.10;99.90;;;;;;4988483;28;20231;-69
2022/08/05 03:14:26;;;;;;;5.32;3.88;;;26.10;99.90;;;;;;4979452;28;20174;-69
2022/08/05 03:16:52;;;;;;;6.95;4.22;;;26.10;99.90;;;;;;4992576;28;20193;-69
2022/08/05 03:19:18;;;;;;;5.97;3.97;;;26.20;99.90;;;;;;4983416;28;20268;-69
2022/08/05 03:21:44;;;;;;;6.47;5.82;;;26.10;99.90;;;;;;5000228;28;20193;-69
2022/08/05 03:24:10;;;;;;;4.68;4.22;;;26.10;99.90;;;;;;4975008;28;20198;-69
2022/08/05 03:26:36;;;;;;;5.53;4.10;;;26.10;99.90;;;;;;4976539;28;20249;-70
2022/08/05 03:29:03;;;;;;;5.18;3.97;;;26.00;99.90;;;;;;4988760;28;20169;-69
2022/08/05 03:31:29;;;;;;;7.80;3.97;;;26.10;99.90;;;;;;4995323;28;20205;-69
2022/08/05 03:33:56;;;;;;;5.00;4.25;;;26.10;99.90;;;;;;4991754;28;20717;-68
2022/08/05 03:36:22;;;;;;;9.52;6.68;;;26.20;99.90;;;;;;4983024;28;20206;-69
2022/08/05 03:38:48;;;;;;;5.05;3.88;;;26.10;99.90;;;;;;4993119;28;20205;-69
2022/08/05 03:41:15;;;;;;;7.93;4.20;;;25.90;99.90;;;;;;4994946;28;20260;-69
2022/08/05 03:43:40;;;;;;;4.93;3.83;;;25.90;99.90;;;;;;4989269;28;20185;-69
2022/08/05 03:46:06;;;;;;;6.95;4.38;;;25.80;99.90;;;;;;4988483;28;20196;-70
2022/08/05 03:48:32;;;;;;;6.32;4.07;;;25.60;99.90;;;;;;4995526;28;20288;-69
2022/08/05 03:51:01;;;;;;;9.07;4.38;;;25.60;99.90;;;;;;4991642;28;20263;-69
2022/08/05 03:53:48;;;;;;;7.03;3.95;;;25.70;99.90;;;;;;4983571;28;20217;-69
2022/08/05 03:56:25;;;;;;;6.05;3.85;;;25.70;99.90;;;;;;4993422;28;20193;-69
2022/08/05 03:58:54;;;;;;;5.05;4.32;;;25.90;99.90;;;;;;4993710;28;20165;-69
2022/08/05 04:01:22;;;;;;;5.47;4.15;;;26.00;99.90;;;;;;4984756;28;20238;-69
2022/08/05 04:03:50;;;;;;;10.52;5.78;;;26.10;99.90;;;;;;4994047;28;20235;-70
2022/08/05 04:06:17;;;;;;;9.60;5.55;;;26.20;99.90;;;;;;4992943;28;20280;-69
2022/08/05 04:08:43;;;;;;;7.25;4.85;;;26.30;99.90;;;;;;4990219;28;20203;-70
2022/08/05 04:11:10;;;;;;;6.63;5.30;;;26.30;99.90;;;;;;4986544;28;20281;-70
2022/08/05 04:13:39;;;;;;;5.78;4.13;;;26.40;99.90;;;;;;4997422;28;20177;-68
2022/08/05 04:16:06;;;;;;;8.00;4.63;;;26.50;99.90;;;;;;4991462;28;20220;-69
2022/08/05 04:18:32;;;;;;;9.10;7.50;;;26.70;99.90;;;;;;4985265;28;20217;-69
2022/08/05 04:20:58;;;;;;;6.90;3.97;;;27.00;99.90;;;;;;4986812;28;20220;-68
2022/08/05 04:23:25;;;;;;;8.18;4.75;;;27.30;99.90;;;;;;4992856;28;20249;-69
2022/08/05 04:25:52;;;;;;;6.10;4.68;;;27.50;99.90;;;;;;4991013;28;20169;-69
2022/08/05 04:28:19;;;;;;;9.40;4.70;;;27.50;99.90;;;;;;4981715;28;20432;-69
2022/08/05 04:30:45;;;;;;;5.80;4.45;;;27.50;99.90;;;;;;4998596;28;20216;-70
2022/08/05 04:33:12;;;;;;;5.35;4.25;;;27.30;99.90;;;;;;4990509;28;20206;-69
2022/08/05 04:35:37;;;;;;;4.57;3.95;;;27.20;99.90;;;;;;4986944;28;20297;-69
2022/08/05 04:38:03;;;;;;;7.65;4.07;;;27.10;99.90;;;;;;4987292;28;20261;-69
2022/08/05 04:40:31;;;;;;;6.53;4.53;;;27.20;99.90;;;;;;4993140;28;20210;-69
2022/08/05 04:42:57;;;;;;;4.80;4.00;;;27.40;99.90;;;;;;4989828;28;20662;-69
2022/08/05 04:45:24;;;;;;;6.68;4.30;;;28.30;99.90;;;;;;4971705;28;20209;-69
2022/08/05 04:47:50;;;;;;;6.80;3.95;;;29.30;99.90;;;;;;4999478;28;20761;-70
2022/08/05 04:50:16;;;;;;;3.55;3.25;;;30.10;99.90;;;;;;4979655;28;20185;-70
2022/08/05 04:52:42;;;;;;;6.25;3.78;;;30.80;99.90;;;;;;4980200;28;20513;-69
2022/08/05 04:55:08;;;;;;;9.43;5.25;;;31.50;99.90;;;;;;4974721;28;20235;-69
2022/08/05 04:57:33;;;;;;;6.07;5.18;;;31.60;99.90;;;;;;4998430;28;20241;-70
2022/08/05 04:59:59;;;;;;;4.90;3.78;;;32.20;99.90;;;;;;4992738;28;20578;-69
2022/08/05 05:02:25;;;;;;;5.22;3.95;;;32.10;99.90;;;;;;4986221;28;20178;-70
2022/08/05 05:04:51;;;;;;;4.47;3.70;;;32.20;99.90;;;;;;5002895;28;20278;-70
2022/08/05 05:07:17;;;;;;;6.20;4.15;;;31.70;99.90;;;;;;4994090;28;20681;-70
2022/08/05 05:09:43;;;;;;;5.50;4.00;;;31.60;99.90;;;;;;4990980;28;20207;-69
2022/08/05 05:12:08;;;;;;;6.45;4.57;;;31.60;99.90;;;;;;4990719;28;20682;-69
2022/08/05 05:14:34;;;;;;;5.43;4.45;;;31.20;99.90;;;;;;4998688;28;20209;-69
2022/08/05 05:16:59;;;;;;;6.18;4.20;;;30.50;99.90;;;;;;4993840;28;20817;-69
2022/08/05 05:19:25;;;;;;;9.07;4.63;;;30.00;99.90;;;;;;4967973;28;20199;-69
2022/08/05 05:21:51;;;;;;;5.40;4.55;;;29.60;99.90;;;;;;4978793;28;20197;-69
2022/08/05 05:24:16;;;;;;;7.50;4.07;;;29.20;99.90;;;;;;4995723;28;20580;-69
2022/08/05 05:26:42;;;;;;;4.43;4.03;;;28.90;99.90;;;;;;4992024;28;20280;-70
2022/08/05 05:29:07;;;;;;;8.82;3.88;;;28.70;99.90;;;;;;4990573;28;20621;-70
2022/08/05 05:31:33;;;;;;;5.68;4.30;;;28.50;99.90;;;;;;4999091;28;20205;-69
2022/08/05 05:33:59;;;;;;;6.72;4.00;;;28.50;99.90;;;;;;4993633;28;20274;-70
2022/08/05 05:36:24;;;;;;;8.50;4.63;;;28.40;99.90;;;;;;4985920;28;20571;-69
2022/08/05 05:38:50;;;;;;;7.07;4.00;;;28.40;99.90;;;;;;4995728;28;20201;-70
2022/08/05 05:41:15;;;;;;;10.63;4.80;;;28.40;99.90;;;;;;4994356;28;20186;-69
2022/08/05 05:43:41;;;;;;;5.75;3.67;;;28.30;99.90;;;;;;4991948;28;20172;-70
2022/08/05 05:46:07;;;;;;;5.78;3.40;;;28.10;99.90;;;;;;4990760;28;20205;-69
2022/08/05 05:48:33;;;;;;;5.13;4.32;;;28.00;99.90;;;;;;4998340;28;20226;-69
2022/08/05 05:50:58;;;;;;;4.88;3.80;;;28.00;99.90;;;;;;4992439;28;20209;-69
2022/08/05 05:53:24;;;;;;;4.20;3.80;;;28.00;99.90;;;;;;4986058;28;20189;-69
2022/08/05 05:55:50;;;;;;;6.65;4.30;;;28.00;99.90;;;;;;4998118;28;20196;-70
2022/08/05 05:58:15;;;;;;;7.10;4.82;;;28.00;99.90;;;;;;4993968;28;20243;-69
2022/08/05 06:03:25;;;;;;;7.32;4.25;;;27.50;99.90;;;;;;5002991;28;20225;-75
2022/08/05 06:05:51;;;;;;;5.45;4.22;;;27.20;99.90;;;;;;5000863;28;20200;-74
2022/08/05 06:08:16;;;;;;;8.38;4.45;;;27.20;99.90;;;;;;4996978;28;20279;-75
2022/08/05 06:10:42;;;;;;;9.60;4.10;;;27.10;99.90;;;;;;4993618;28;20181;-76
2022/08/05 06:13:07;;;;;;;8.73;4.57;;;26.90;99.90;;;;;;4978725;28;20694;-75
2022/08/05 06:15:33;;;;;;;15.43;4.65;;;26.80;99.90;;;;;;4981129;28;20210;-74
2022/08/05 06:17:59;;;;;;;5.70;4.13;;;26.70;99.90;;;;;;4990142;28;20292;-75
2022/08/05 06:20:24;;;;;;;4.88;4.00;;;27.00;99.90;;;;;;4976506;28;20240;-74
2022/08/05 06:22:50;;;;;;;6.82;4.45;;;27.20;99.90;;;;;;5000335;28;20196;-74
2022/08/05 06:25:15;;;;;;;12.48;4.28;;;27.70;99.90;;;;;;4993276;28;20205;-74
2022/08/05 06:27:41;;;;;;;5.68;3.63;;;28.90;99.90;;;;;;4970894;28;20220;-74
2022/08/05 06:30:07;;;;;;;6.72;3.70;;;28.90;99.90;;;;;;4988294;28;20202;-74
2022/08/05 06:32:32;;;;;;;8.02;3.83;;;29.00;99.90;;;;;;5001417;28;20583;-75
2022/08/05 06:34:58;;;;;;;5.15;3.55;;;29.10;99.90;;;;;;4997712;28;20165;-75
2022/08/05 06:37:27;;;;;;;8.73;4.18;;;29.10;99.90;;;;;;4987233;28;20206;-75
2022/08/05 06:39:53;;;;;;;7.30;4.10;;;29.10;99.90;;;;;;5000071;28;20288;-75
2022/08/05 06:42:18;;;;;;;6.57;4.82;;;29.10;99.90;;;;;;4991289;28;20995;-75
2022/08/05 06:44:44;;;;;;;5.18;4.07;;;29.20;99.90;;;;;;4986030;28;20277;-75
2022/08/05 06:47:09;;;;;;;9.13;6.90;;;29.20;99.90;;;;;;4995879;28;20256;-75
2022/08/05 06:49:35;;;;;;;6.47;3.85;;;29.20;99.90;;;;;;4996135;28;20174;-75
2022/08/05 06:52:00;;;;;;;4.85;4.10;;;29.20;99.90;;;;;;4988878;28;20572;-76
2022/08/05 06:54:26;;;;;;;5.95;3.65;;;29.20;99.90;;;;;;4985675;28;20230;-75
2022/08/05 06:56:52;;;;;;;6.28;3.30;;;29.30;99.90;;;;;;4998754;28;20220;-75
2022/08/05 06:59:17;;;;;;;7.43;3.22;;;29.60;99.90;;;;;;4995797;28;20177;-75
2022/08/05 07:01:43;;;;;;;5.72;3.22;;;30.30;99.90;;;;;;4987121;28;20244;-75
2022/08/05 07:04:09;;;;;;;7.60;3.08;;;31.70;99.90;;;;;;4995765;28;20212;-75
2022/08/05 07:06:34;;;;;;;5.22;2.70;;;33.40;99.90;;;;;;4989843;28;20206;-75
2022/08/05 07:09:00;;;;;;;4.47;3.28;;;34.70;99.90;;;;;;4989763;28;20201;-76
2022/08/05 07:11:27;;;;;;;5.15;2.80;;;34.70;99.90;;;;;;4991961;28;20705;-75
2022/08/05 07:16:49;;;;;;;8.70;3.17;;;33.90;99.90;;;;;;4993119;28;20642;-75
2022/08/05 07:19:20;;;;;;;5.00;3.55;;;32.90;99.90;;;;;;4985372;28;20683;-76
2022/08/05 07:21:48;;;;;;;8.00;3.47;;;32.10;99.90;;;;;;4994341;28;20612;-75
2022/08/05 07:24:14;;;;;;;5.50;3.53;;;31.80;99.90;;;;;;4976618;28;20598;-75
2022/08/05 07:26:41;;;;;;;5.88;3.15;;;31.50;99.90;;;;;;4990489;28;20241;-75
2022/08/05 07:29:07;;;;;;;9.25;3.55;;;31.10;99.90;;;;;;4995284;28;20675;-74
2022/08/05 07:31:33;;;;;;;4.45;3.17;;;30.70;99.90;;;;;;5004177;28;20195;-75
2022/08/05 07:33:59;;;;;;;6.10;3.38;;;30.10;99.90;;;;;;4992410;28;20284;-75
2022/08/05 07:36:25;;;;;;;6.45;4.13;;;29.90;99.90;;;;;;4984160;28;20289;-75
2022/08/05 07:38:50;;;;;;;6.82;3.55;;;29.80;99.90;;;;;;4995829;28;20247;-75
2022/08/05 07:41:19;;;;;;;5.93;3.90;;;29.50;99.90;;;;;;4977560;28;20193;-75
2022/08/05 07:43:44;;;;;;;6.88;3.90;;;29.40;99.90;;;;;;4991608;28;20216;-75
2022/08/05 07:46:10;;;;;;;5.93;4.00;;;29.10;99.90;;;;;;4996273;28;20682;-75
2022/08/05 07:48:36;;;;;;;7.75;5.28;;;28.90;99.90;;;;;;4998652;28;20213;-75
2022/08/05 07:51:01;;;;;;;4.60;4.18;;;28.60;99.90;;;;;;4971049;28;20202;-75
2022/08/05 07:53:27;;;;;;;6.82;5.18;;;28.20;99.90;;;;;;4969312;28;20210;-76
2022/08/05 07:55:53;;;;;;;9.20;5.05;;;28.10;99.90;;;;;;4990407;28;20206;-75
2022/08/05 07:58:19;;;;;;;4.45;3.45;;;27.90;99.90;;;;;;4992051;28;20206;-75
2022/08/05 08:00:45;;;;;;;7.45;3.83;;;27.70;99.90;;;;;;4990228;28;20251;-75
2022/08/05 08:03:12;;;;;;;6.63;4.28;;;27.30;99.90;;;;;;4981964;28;20216;-75
2022/08/05 08:05:42;;;;;;;4.68;3.88;;;27.30;99.90;;;;;;4997303;28;20206;-75
2022/08/05 08:08:11;;;;;;;8.23;4.45;;;27.20;99.90;;;;;;4988575;28;20196;-75
2022/08/05 08:10:37;;;;;;;5.38;3.97;;;27.00;99.90;;;;;;4970243;28;20524;-75
2022/08/05 08:13:03;;;;;;;5.63;3.63;;;27.10;99.90;;;;;;4994169;28;20204;-75
2022/08/05 08:15:30;;;;;;;8.02;3.78;;;26.90;99.90;;;;;;4981813;28;20212;-75
2022/08/05 08:17:55;;;;;;;4.35;3.92;;;26.90;99.90;;;;;;4968471;28;20198;-75
2022/08/05 08:20:22;;;;;;;4.38;3.78;;;27.00;99.90;;;;;;4963498;28;20193;-76
2022/08/05 08:22:55;;;;;;;3.92;3.15;;;27.00;99.90;;;;;;4998928;28;20185;-76
2022/08/05 08:25:21;;;;;;;6.95;3.58;;;26.80;99.90;;;;;;4990812;28;20685;-75
2022/08/05 08:27:47;;;;;;;5.85;3.15;;;26.90;99.90;;;;;;4987026;28;20300;-74
2022/08/05 08:30:13;;;;;;;5.50;3.53;;;27.10;99.90;;;;;;4997953;28;20220;-74
2022/08/05 08:32:39;;;;;;;4.65;3.45;;;27.30;99.90;;;;;;4994175;28;20582;-74
2022/08/05 08:35:06;;;;;;;6.70;3.40;;;27.50;99.90;;;;;;4988255;28;20172;-75
2022/08/05 08:37:32;;;;;;;3.95;3.42;;;27.50;99.90;;;;;;4984457;28;20221;-74
2022/08/05 08:39:57;;;;;;;5.28;4.13;;;27.40;99.90;;;;;;5001769;28;20280;-74
2022/08/05 08:42:24;;;;;;;5.43;4.15;;;27.20;99.90;;;;;;4995604;28;20205;-74
2022/08/05 08:44:53;;;;;;;12.23;7.53;;;27.30;99.90;;;;;;4987031;28;20194;-74
2022/08/05 08:47:23;;;;;;;4.43;3.50;;;27.40;99.90;;;;;;4993471;28;20178;-74
2022/08/05 08:49:51;;;;;;;4.05;3.42;;;27.30;99.90;;;;;;4994130;28;20181;-75
2022/08/05 08:52:23;;;;;;;5.05;2.75;;;27.30;99.90;;;;;;4968928;28;20568;-77
2022/08/05 08:54:51;;;;;;;5.10;2.90;;;26.90;99.90;;;;;;4989543;28;20204;-74
2022/08/05 08:57:17;;;;;;;4.00;2.65;;;26.90;99.90;;;;;;4976531;28;20671;-75
2022/08/05 08:59:43;;;;;;;4.47;2.83;;;26.90;99.90;;;;;;4987153;28;20212;-74
2022/08/05 09:02:10;;;;;;;3.38;3.08;;;26.80;99.90;;;;;;4966539;28;20669;-75
2022/08/05 09:04:36;;;;;;;4.38;3.10;;;26.80;99.90;;;;;;4990894;28;20583;-76
2022/08/05 09:07:04;;;;;;;5.75;2.95;;;26.80;99.90;;;;;;4993379;28;20193;-76
2022/08/05 09:09:31;;;;;;;6.88;2.92;;;26.80;99.90;;;;;;4978819;28;20214;-75
2022/08/05 09:11:57;;;;;;;3.85;2.90;;;26.90;99.90;;;;;;4987754;28;20201;-75
2022/08/05 09:14:23;;;;;;;8.85;3.17;;;26.90;99.90;;;;;;4999166;28;20239;-75
2022/08/05 09:16:48;;;;;;;5.97;3.17;;;27.10;99.90;;;;;;4992494;28;20201;-75
2022/08/05 09:19:14;;;;;;;4.90;2.80;;;27.30;99.90;;;;;;4983341;28;20726;-75
2022/08/05 09:21:40;;;;;;;4.38;3.50;;;27.30;99.90;;;;;;4978504;28;20533;-75
2022/08/05 09:24:07;;;;;;;4.85;3.15;;;27.30;99.90;;;;;;4993025;28;20280;-75
2022/08/05 09:26:35;;;;;;;3.63;2.95;;;27.50;99.90;;;;;;4987558;28;20282;-75
2022/08/05 09:29:07;;;;;;;7.25;3.13;;;27.50;99.90;;;;;;4970591;28;20260;-75
2022/08/05 09:31:33;;;;;;;3.47;3.05;;;27.90;99.90;;;;;;4995456;28;20205;-76
2022/08/05 09:34:03;;;;;;;6.55;2.90;;;28.30;99.90;;;;;;4991934;28;20205;-75
2022/08/05 09:36:45;;;;;;;4.43;2.90;;;28.60;99.90;;;;;;4986949;28;20214;-76
2022/08/05 09:39:12;;;;;;;4.47;2.67;;;28.60;99.90;;;;;;4983089;28;20206;-76
2022/08/05 09:41:56;;;;;;;4.50;2.65;;;28.50;99.90;;;;;;4979545;28;20222;-75
2022/08/05 09:44:40;;;;;;;3.95;2.20;;;28.50;99.90;;;;;;4987799;28;20209;-76
2022/08/05 09:47:13;;;;;;;4.60;2.88;;;28.50;99.90;;;;;;4999841;28;20181;-75
2022/08/05 09:49:40;;;;;;;3.20;2.90;;;28.30;99.90;;;;;;4997615;28;20214;-76
2022/08/05 09:52:26;;;;;;;5.55;3.10;;;28.10;99.90;;;;;;4996952;28;20209;-76
2022/08/05 09:54:58;;;;;;;5.78;3.30;;;27.90;99.90;;;;;;4992677;28;20283;-76
2022/08/05 09:57:31;;;;;;;4.95;3.70;;;27.70;99.90;;;;;;5002197;28;20209;-75
2022/08/05 10:00:07;;;;;;;4.43;3.22;;;27.60;99.90;;;;;;4993450;28;20202;-76
2022/08/05 10:02:44;;;;;;;5.30;3.35;;;27.40;99.90;;;;;;4986412;28;20218;-76
2022/08/05 10:05:20;;;;;;;6.38;4.60;;;26.90;99.90;;;;;;5001573;28;20173;-76
2022/08/05 10:07:49;;;;;;;4.18;3.47;;;26.40;99.90;;;;;;4987590;28;20165;-75
2022/08/05 10:10:16;;;;;;;6.15;3.20;;;26.10;99.90;;;;;;4988668;28;20276;-76
2022/08/05 10:12:44;;;;;;;4.55;3.13;;;26.10;99.90;;;;;;4986412;28;20197;-75
2022/08/05 10:15:30;;;;;;;5.50;3.10;;;26.20;99.90;;;;;;4975941;28;20193;-75
2022/08/05 10:18:10;;;;;;;5.43;3.58;;;26.20;99.90;;;;;;4997192;28;20196;-75
2022/08/05 10:20:48;;;;;;;5.40;4.47;;;26.40;99.90;;;;;;4987556;28;20217;-75
2022/08/05 10:23:26;;;;;;;7.88;4.18;;;26.70;99.90;;;;;;4999128;28;20768;-75
2022/08/05 10:25:53;;;;;;;9.63;5.93;;;26.80;99.90;;;;;;4999929;28;20190;-76
2022/08/05 10:28:19;;;;;;;6.43;4.80;;;26.80;99.90;;;;;;4988282;28;20209;-75
2022/08/05 10:30:44;;;;;;;6.72;5.03;;;26.90;99.90;;;;;;5006544;28;20347;-75
2022/08/05 10:33:10;;;;;;;6.88;4.15;;;26.90;99.90;;;;;;4998358;28;20751;-76
2022/08/05 10:35:36;;;;;;;7.78;4.25;;;26.90;99.90;;;;;;4990615;28;20221;-75
2022/08/05 10:38:03;;;;;;;4.88;3.03;;;26.90;99.90;;;;;;4989954;28;20527;-76
2022/08/05 10:40:45;;;;;;;4.40;2.95;;;26.70;99.90;;;;;;4980777;28;20212;-75
2022/08/05 10:43:35;;;;;;;4.63;3.25;;;26.60;99.90;;;;;;4980254;28;20198;-76
2022/08/05 10:46:04;;;;;;;4.93;3.45;;;26.50;99.90;;;;;;4984926;28;20225;-76
2022/08/05 10:48:35;;;;;;;3.28;2.97;;;26.40;99.90;;;;;;4996191;28;20205;-75
2022/08/05 10:51:05;;;;;;;4.20;3.15;;;26.40;99.90;;;;;;4993180;28;20205;-75
2022/08/05 10:53:49;;;;;;;5.57;3.38;;;26.60;99.90;;;;;;4975301;28;20242;-76
2022/08/05 10:56:17;;;;;;;4.45;3.17;;;27.10;99.90;;;;;;4996940;28;20221;-75
2022/08/05 10:58:48;;;;;;;4.43;3.03;;;27.60;99.90;;;;;;4995913;28;20177;-75
2022/08/05 11:01:14;;;;;;;4.63;3.20;;;27.70;99.90;;;;;;4989068;28;20255;-75
2022/08/05 11:04:10;;;;;;;3.65;3.30;;;27.90;99.90;;;;;;4987722;28;20610;-76
2022/08/05 11:06:56;;;;;;;5.45;3.90;;;27.70;99.90;;;;;;4996770;28;20308;-75
2022/08/05 11:09:23;;;;;;;13.13;9.68;;;27.50;99.90;;;;;;4975256;28;20205;-74
2022/08/05 11:11:50;;;;;;;7.20;4.00;;;27.60;99.90;;;;;;4989513;28;20263;-75
2022/08/05 11:14:24;;;;;;;4.15;3.30;;;27.60;99.90;;;;;;4996196;28;20181;-75
2022/08/05 11:17:24;;;;;;;3.88;2.72;;;27.90;99.90;;;;;;4989718;28;20191;-76
2022/08/05 11:19:52;;;;;;;4.80;2.97;;;28.50;99.90;;;;;;4975847;28;20240;-75
2022/08/05 11:22:39;;;;;;;4.35;2.90;;;29.10;99.90;;;;;;4993827;28;20215;-75
2022/08/05 11:25:30;;;;;;;2.72;2.50;;;29.40;99.90;;;;;;4994013;28;20197;-73
2022/08/05 11:28:16;;;;;;;5.57;3.50;;;29.80;99.90;;;;;;4985882;28;20546;-75
2022/08/05 11:30:56;;;;;;;3.42;2.92;;;29.90;99.90;;;;;;4999909;28;20288;-76
2022/08/05 11:33:34;;;;;;;4.07;2.72;;;30.20;99.90;;;;;;4990634;28;20197;-75
2022/08/05 11:36:10;;;;;;;2.63;2.42;;;30.10;99.90;;;;;;4986292;28;20212;-75
2022/08/05 11:38:41;;;;;;;4.75;2.70;;;30.30;99.90;;;;;;4991328;28;20577;-75
2022/08/05 11:41:15;;;;;;;3.70;2.70;;;30.10;99.90;;;;;;4994311;28;20180;-75
2022/08/05 11:44:02;;;;;;;5.28;2.72;;;30.20;99.90;;;;;;4989881;28;20186;-76
2022/08/05 11:46:28;;;;;;;5.10;3.20;;;30.20;99.90;;;;;;4972329;28;20227;-75
2022/08/05 11:48:54;;;;;;;5.95;2.85;;;30.50;99.90;;;;;;4997179;28;20670;-75
2022/08/05 11:51:21;;;;;;;5.18;4.55;;;30.60;99.90;;;;;;4989081;28;20285;-76
2022/08/05 11:53:47;;;;;;;4.85;2.90;;;30.70;99.90;;;;;;4985835;28;20205;-76
2022/08/05 11:56:13;;;;;;;4.43;3.30;;;30.90;99.90;;;;;;4989554;28;20225;-76
2022/08/05 11:58:41;;;;;;;4.32;3.67;;;31.00;99.90;;;;;;4993078;28;20208;-76
2022/08/05 12:01:11;;;;;;;5.05;3.08;;;31.10;99.90;;;;;;4987021;28;20209;-73
2022/08/05 12:03:53;;;;;;;3.25;2.95;;;31.40;99.90;;;;;;4998047;23;20214;-68
2022/08/05 12:06:28;;;;;;;5.10;3.60;;;31.00;99.90;;;;;;4999899;28;20255;-70
2022/08/05 12:08:56;;;;;;;6.13;3.75;;;31.10;99.90;;;;;;4994639;28;20569;-70
2022/08/05 12:11:27;;;;;;;3.78;3.17;;;31.00;99.90;;;;;;4992320;28;20204;-69
2022/08/05 12:14:04;;;;;;;4.85;3.13;;;30.90;99.90;;;;;;5002342;28;20197;-68
2022/08/05 12:16:35;;;;;;;3.92;3.60;;;30.80;99.90;;;;;;4979032;28;20220;-69
2022/08/05 12:19:02;;;;;;;4.40;3.28;;;31.20;99.90;;;;;;4992640;28;20678;-68
2022/08/05 12:21:30;;;;;;;3.22;2.85;;;31.20;99.90;;;;;;4995296;28;20197;-70
2022/08/05 12:24:02;;;;;;;5.40;3.00;;;31.20;99.90;;;;;;4980038;28;20204;-70
2022/08/05 12:26:42;;;;;;;3.90;2.83;;;31.20;99.90;;;;;;4994868;28;20721;-69
2022/08/05 12:29:14;;;;;;;3.22;2.45;;;31.20;99.90;;;;;;4994938;28;20199;-69
2022/08/05 12:31:43;;;;;;;4.65;2.05;;;31.00;99.90;;;;;;4982687;28;20169;-70
2022/08/05 12:34:09;;;;;;;4.03;2.83;;;30.50;99.90;;;;;;4994369;28;20208;-70
2022/08/05 12:36:36;;;;;;;2.80;2.50;;;30.30;99.90;;;;;;4992474;28;20297;-70
2022/08/05 12:39:04;;;;;;;3.50;2.85;;;30.20;99.90;;;;;;4996997;28;20216;-69
2022/08/05 12:41:34;;;;;;;3.00;2.22;;;29.90;99.90;;;;;;4997052;28;20550;-70
2022/08/05 12:44:03;;;;;;;3.17;2.33;;;30.00;99.90;;;;;;4992316;28;20593;-70
2022/08/05 12:46:30;;;;;;;3.85;2.67;;;30.10;99.90;;;;;;4991724;28;20198;-69
2022/08/05 12:49:16;;;;;;;3.42;2.50;;;30.00;99.90;;;;;;4997891;28;20196;-69
2022/08/05 12:51:46;;;;;;;2.80;2.33;;;30.10;99.90;;;;;;4977498;28;20205;-70
2022/08/05 12:54:24;;;;;;;2.97;2.67;;;30.10;99.90;;;;;;4991699;28;20221;-68
2022/08/05 12:56:55;;;;;;;3.97;2.40;;;30.10;99.90;;;;;;4992775;28;20575;-69
2022/08/05 12:59:29;;;;;;;3.40;2.90;;;29.90;99.90;;;;;;4994604;28;20181;-68
2022/08/05 13:02:06;;;;;;;5.10;2.65;;;30.10;99.90;;;;;;4992747;28;20181;-70